sensor_id;sensor_type;location;lat;lon;timestamp;pressure;altitude;pressure_sealevel;temperature;humidity
57628;BME280;43451;49.060;10.616;2023-07-13T00:01:51;96592.38;;;19.10;100.00
57628;BME280;43451;49.060;10.616;2023-07-13T00:04:18;96599.72;;;19.13;100.00
57628;BME280;43451;49.060;10.616;2023-07-13T00:06:44;96596.31;;;19.09;100.00
57628;BME280;43451;49.060;10.616;2023-07-13T00:09:12;96601.47;;;18.97;100.00
57628;BME280;43451;49.060;10.616;2023-07-13T00:11:39;96600.81;;;18.93;100.00
57628;BME280;43451;49.060;10.616;2023-07-13T00:14:05;96602.66;;;18.87;100.00
57628;BME280;43451;49.060;10.616;2023-07-13T00:16:34;96598.28;;;18.77;100.00
57628;BME280;43451;49.060;10.616;2023-07-13T00:18:59;96591.38;;;18.72;100.00
57628;BME280;43451;49.060;10.616;2023-07-13T00:21:26;96586.34;;;18.58;100.00
57628;BME280;43451;49.060;10.616;2023-07-13T00:23:52;96597.81;;;18.56;100.00
57628;BME280;43451;49.060;10.616;2023-07-13T00:26:17;96604.97;;;18.54;100.00
57628;BME280;43451;49.060;10.616;2023-07-13T00:28:43;96593.75;;;18.48;100.00
57628;BME280;43451;49.060;10.616;2023-07-13T00:31:10;96605.91;;;18.38;100.00
57628;BME280;43451;49.060;10.616;2023-07-13T00:33:35;96604.94;;;18.32;100.00
57628;BME280;43451;49.060;10.616;2023-07-13T00:36:02;96610.69;;;18.25;100.00
57628;BME280;43451;49.060;10.616;2023-07-13T00:38:28;96616.75;;;18.20;100.00
57628;BME280;43451;49.060;10.616;2023-07-13T00:40:53;96609.41;;;18.04;100.00
57628;BME280;43451;49.060;10.616;2023-07-13T00:43:23;96613.38;;;18.03;100.00
57628;BME280;43451;49.060;10.616;2023-07-13T00:48:18;96616.34;;;18.08;100.00
57628;BME280;43451;49.060;10.616;2023-07-13T00:50:50;96620.63;;;18.09;100.00
57628;BME280;43451;49.060;10.616;2023-07-13T00:53:17;96619.09;;;18.08;100.00
57628;BME280;43451;49.060;10.616;2023-07-13T00:55:43;96617.25;;;18.05;100.00
57628;BME280;43451;49.060;10.616;2023-07-13T00:58:08;96624.81;;;18.01;100.00
57628;BME280;43451;49.060;10.616;2023-07-13T01:00:38;96622.44;;;17.91;100.00
57628;BME280;43451;49.060;10.616;2023-07-13T01:03:04;96634.41;;;17.84;100.00
57628;BME280;43451;49.060;10.616;2023-07-13T01:05:32;96628.16;;;17.71;100.00
57628;BME280;43451;49.060;10.616;2023-07-13T01:07:59;96627.16;;;17.64;100.00
57628;BME280;43451;49.060;10.616;2023-07-13T01:10:26;96626.50;;;17.60;100.00
57628;BME280;43451;49.060;10.616;2023-07-13T01:12:52;96631.66;;;17.58;100.00
57628;BME280;43451;49.060;10.616;2023-07-13T01:15:36;96624.75;;;17.54;100.00
57628;BME280;43451;49.060;10.616;2023-07-13T01:18:04;96619.56;;;17.56;100.00
57628;BME280;43451;49.060;10.616;2023-07-13T01:20:30;96614.72;;;17.47;100.00
57628;BME280;43451;49.060;10.616;2023-07-13T01:22:55;96620.44;;;17.40;100.00
57628;BME280;43451;49.060;10.616;2023-07-13T01:25:21;96616.41;;;17.32;100.00
57628;BME280;43451;49.060;10.616;2023-07-13T01:27:46;96615.59;;;17.31;100.00
57628;BME280;43451;49.060;10.616;2023-07-13T01:30:12;96623.31;;;17.36;100.00
57628;BME280;43451;49.060;10.616;2023-07-13T01:32:38;96614.19;;;17.27;100.00
57628;BME280;43451;49.060;10.616;2023-07-13T01:35:07;96610.44;;;17.21;100.00
57628;BME280;43451;49.060;10.616;2023-07-13T01:37:33;96616.47;;;17.15;100.00
57628;BME280;43451;49.060;10.616;2023-07-13T01:40:02;96613.72;;;17.15;100.00
57628;BME280;43451;49.060;10.616;2023-07-13T01:42:28;96623.91;;;17.02;100.00
57628;BME280;43451;49.060;10.616;2023-07-13T01:44:54;96626.53;;;16.93;100.00
57628;BME280;43451;49.060;10.616;2023-07-13T01:47:22;96630.13;;;16.90;100.00
57628;BME280;43451;49.060;10.616;2023-07-13T01:49:49;96630.34;;;16.83;100.00
57628;BME280;43451;49.060;10.616;2023-07-13T01:52:16;96632.91;;;17.03;100.00
57628;BME280;43451;49.060;10.616;2023-07-13T01:54:41;96643.81;;;17.06;100.00
57628;BME280;43451;49.060;10.616;2023-07-13T01:57:07;96639.50;;;17.05;100.00
57628;BME280;43451;49.060;10.616;2023-07-13T01:59:33;96631.28;;;17.05;100.00
57628;BME280;43451;49.060;10.616;2023-07-13T02:02:00;96633.38;;;17.14;100.00
57628;BME280;43451;49.060;10.616;2023-07-13T02:04:26;96634.16;;;17.14;100.00
57628;BME280;43451;49.060;10.616;2023-07-13T02:06:52;96632.63;;;17.13;100.00
57628;BME280;43451;49.060;10.616;2023-07-13T02:09:17;96633.16;;;17.08;100.00
57628;BME280;43451;49.060;10.616;2023-07-13T02:11:43;96633.28;;;17.17;100.00
57628;BME280;43451;49.060;10.616;2023-07-13T02:14:08;96631.97;;;17.22;100.00
57628;BME280;43451;49.060;10.616;2023-07-13T02:16:34;96627.25;;;17.23;100.00
57628;BME280;43451;49.060;10.616;2023-07-13T02:18:59;96623.75;;;17.22;100.00
57628;BME280;43451;49.060;10.616;2023-07-13T02:21:25;96627.38;;;17.32;100.00
57628;BME280;43451;49.060;10.616;2023-07-13T02:23:51;96619.34;;;17.37;100.00
57628;BME280;43451;49.060;10.616;2023-07-13T02:26:18;96623.94;;;17.28;100.00
57628;BME280;43451;49.060;10.616;2023-07-13T02:28:46;96630.41;;;17.08;100.00
57628;BME280;43451;49.060;10.616;2023-07-13T02:31:14;96627.56;;;17.25;100.00
57628;BME280;43451;49.060;10.616;2023-07-13T02:33:39;96623.31;;;17.36;93.21
57628;BME280;43451;49.060;10.616;2023-07-13T02:36:08;96619.44;;;17.34;96.13
57628;BME280;43451;49.060;10.616;2023-07-13T02:38:33;96621.53;;;17.30;91.78
57628;BME280;43451;49.060;10.616;2023-07-13T02:41:00;96632.00;;;17.35;89.73
57628;BME280;43451;49.060;10.616;2023-07-13T02:43:27;96631.22;;;17.47;87.41
57628;BME280;43451;49.060;10.616;2023-07-13T02:45:54;96635.50;;;17.48;84.72
57628;BME280;43451;49.060;10.616;2023-07-13T02:48:20;96634.84;;;17.44;86.87
57628;BME280;43451;49.060;10.616;2023-07-13T02:50:45;96629.44;;;17.40;85.16
57628;BME280;43451;49.060;10.616;2023-07-13T02:53:11;96641.19;;;17.41;84.97
57628;BME280;43451;49.060;10.616;2023-07-13T02:55:36;96637.03;;;17.36;84.88
57628;BME280;43451;49.060;10.616;2023-07-13T02:58:02;96638.69;;;17.34;84.43
57628;BME280;43451;49.060;10.616;2023-07-13T03:00:27;96647.13;;;17.27;86.28
57628;BME280;43451;49.060;10.616;2023-07-13T03:02:53;96647.78;;;17.18;87.63
57628;BME280;43451;49.060;10.616;2023-07-13T03:05:25;96649.41;;;17.15;88.58
57628;BME280;43451;49.060;10.616;2023-07-13T03:07:51;96655.56;;;17.07;89.92
57628;BME280;43451;49.060;10.616;2023-07-13T03:10:16;96662.69;;;17.04;89.67
57628;BME280;43451;49.060;10.616;2023-07-13T03:12:42;96669.56;;;16.96;93.46
57628;BME280;43451;49.060;10.616;2023-07-13T03:15:09;96666.03;;;16.83;94.82
57628;BME280;43451;49.060;10.616;2023-07-13T03:17:36;96670.56;;;16.73;96.60
57628;BME280;43451;49.060;10.616;2023-07-13T03:20:01;96668.13;;;16.62;97.89
57628;BME280;43451;49.060;10.616;2023-07-13T03:22:28;96677.72;;;16.54;96.13
57628;BME280;43451;49.060;10.616;2023-07-13T03:24:55;96680.66;;;16.47;96.24
57628;BME280;43451;49.060;10.616;2023-07-13T03:27:22;96681.88;;;16.46;96.27
57628;BME280;43451;49.060;10.616;2023-07-13T03:29:48;96684.94;;;16.48;97.05
57628;BME280;43451;49.060;10.616;2023-07-13T03:32:14;96695.22;;;16.44;98.31
57628;BME280;43451;49.060;10.616;2023-07-13T03:34:39;96693.34;;;16.41;97.81
57628;BME280;43451;49.060;10.616;2023-07-13T03:37:05;96695.66;;;16.42;98.24
57628;BME280;43451;49.060;10.616;2023-07-13T03:39:31;96697.97;;;16.44;97.16
57628;BME280;43451;49.060;10.616;2023-07-13T03:42:00;96705.94;;;16.38;99.37
57628;BME280;43451;49.060;10.616;2023-07-13T03:44:26;96697.13;;;16.47;96.54
57628;BME280;43451;49.060;10.616;2023-07-13T03:46:52;96704.47;;;16.50;95.02
57628;BME280;43451;49.060;10.616;2023-07-13T03:49:18;96703.38;;;16.47;98.23
57628;BME280;43451;49.060;10.616;2023-07-13T03:51:43;96718.09;;;16.54;98.43
57628;BME280;43451;49.060;10.616;2023-07-13T03:54:09;96711.00;;;16.56;99.02
57628;BME280;43451;49.060;10.616;2023-07-13T03:56:35;96715.25;;;16.57;98.58
57628;BME280;43451;49.060;10.616;2023-07-13T03:59:00;96720.34;;;16.59;99.10
57628;BME280;43451;49.060;10.616;2023-07-13T04:01:26;96717.84;;;16.48;98.23
57628;BME280;43451;49.060;10.616;2023-07-13T04:03:52;96708.94;;;16.44;100.00
57628;BME280;43451;49.060;10.616;2023-07-13T04:06:28;96727.78;;;16.42;100.00
57628;BME280;43451;49.060;10.616;2023-07-13T04:08:57;96720.16;;;16.33;100.00
57628;BME280;43451;49.060;10.616;2023-07-13T04:11:25;96720.69;;;16.28;100.00
57628;BME280;43451;49.060;10.616;2023-07-13T04:13:52;96721.97;;;16.23;100.00
57628;BME280;43451;49.060;10.616;2023-07-13T04:16:18;96713.41;;;16.21;100.00
57628;BME280;43451;49.060;10.616;2023-07-13T04:18:45;96716.75;;;16.13;100.00
57628;BME280;43451;49.060;10.616;2023-07-13T04:21:10;96726.94;;;16.12;100.00
57628;BME280;43451;49.060;10.616;2023-07-13T04:23:37;96721.56;;;16.09;100.00
57628;BME280;43451;49.060;10.616;2023-07-13T04:26:03;96727.44;;;16.07;100.00
57628;BME280;43451;49.060;10.616;2023-07-13T04:28:29;96727.38;;;16.11;100.00
57628;BME280;43451;49.060;10.616;2023-07-13T04:30:55;96738.41;;;16.07;100.00
57628;BME280;43451;49.060;10.616;2023-07-13T04:33:22;96746.13;;;16.12;100.00
57628;BME280;43451;49.060;10.616;2023-07-13T04:35:53;96737.75;;;16.19;100.00
57628;BME280;43451;49.060;10.616;2023-07-13T04:38:28;96751.22;;;16.30;100.00
57628;BME280;43451;49.060;10.616;2023-07-13T04:40:55;96747.06;;;16.38;100.00
57628;BME280;43451;49.060;10.616;2023-07-13T04:43:22;96745.09;;;16.39;100.00
57628;BME280;43451;49.060;10.616;2023-07-13T04:45:48;96745.88;;;16.39;100.00
57628;BME280;43451;49.060;10.616;2023-07-13T04:48:13;96754.88;;;16.56;100.00
57628;BME280;43451;49.060;10.616;2023-07-13T04:50:39;96754.19;;;16.52;100.00
57628;BME280;43451;49.060;10.616;2023-07-13T04:53:04;96754.97;;;16.53;100.00
57628;BME280;43451;49.060;10.616;2023-07-13T04:55:30;96764.28;;;16.55;100.00
57628;BME280;43451;49.060;10.616;2023-07-13T04:57:56;96765.47;;;16.70;100.00
57628;BME280;43451;49.060;10.616;2023-07-13T05:00:24;96766.88;;;16.79;100.00
57628;BME280;43451;49.060;10.616;2023-07-13T05:02:50;96767.34;;;16.90;100.00
57628;BME280;43451;49.060;10.616;2023-07-13T05:05:15;96764.91;;;17.08;100.00
57628;BME280;43451;49.060;10.616;2023-07-13T05:07:41;96768.16;;;17.20;97.26
57628;BME280;43451;49.060;10.616;2023-07-13T05:10:07;96764.00;;;17.28;97.38
57628;BME280;43451;49.060;10.616;2023-07-13T05:12:33;96774.81;;;17.35;96.97
57628;BME280;43451;49.060;10.616;2023-07-13T05:14:59;96757.91;;;17.49;88.50
57628;BME280;43451;49.060;10.616;2023-07-13T05:17:24;96767.16;;;17.55;92.81
57628;BME280;43451;49.060;10.616;2023-07-13T05:19:50;96767.38;;;17.61;93.27
57628;BME280;43451;49.060;10.616;2023-07-13T05:22:15;96774.66;;;17.68;85.21
57628;BME280;43451;49.060;10.616;2023-07-13T05:24:41;96776.47;;;17.87;82.86
57628;BME280;43451;49.060;10.616;2023-07-13T05:27:06;96769.88;;;17.97;83.53
57628;BME280;43451;49.060;10.616;2023-07-13T05:29:32;96772.97;;;17.99;82.23
57628;BME280;43451;49.060;10.616;2023-07-13T05:31:58;96774.84;;;18.15;81.38
57628;BME280;43451;49.060;10.616;2023-07-13T05:34:23;96776.47;;;18.13;78.17
57628;BME280;43451;49.060;10.616;2023-07-13T05:36:49;96774.72;;;18.19;80.31
57628;BME280;43451;49.060;10.616;2023-07-13T05:39:15;96775.06;;;18.21;80.49
57628;BME280;43451;49.060;10.616;2023-07-13T05:41:41;96772.63;;;18.23;83.13
57628;BME280;43451;49.060;10.616;2023-07-13T05:44:07;96775.16;;;18.30;80.41
57628;BME280;43451;49.060;10.616;2023-07-13T05:46:33;96777.47;;;18.31;82.86
57628;BME280;43451;49.060;10.616;2023-07-13T05:48:59;96772.19;;;18.37;77.57
57628;BME280;43451;49.060;10.616;2023-07-13T05:51:24;96773.72;;;18.38;81.73
57628;BME280;43451;49.060;10.616;2023-07-13T05:53:50;96767.44;;;18.50;74.12
57628;BME280;43451;49.060;10.616;2023-07-13T05:56:15;96772.94;;;18.50;74.73
57628;BME280;43451;49.060;10.616;2023-07-13T05:58:44;96778.06;;;18.61;76.19
57628;BME280;43451;49.060;10.616;2023-07-13T06:01:13;96766.41;;;18.70;77.13
57628;BME280;43451;49.060;10.616;2023-07-13T06:03:39;96765.97;;;18.84;76.21
57628;BME280;43451;49.060;10.616;2023-07-13T06:06:06;96769.16;;;18.83;74.24
57628;BME280;43451;49.060;10.616;2023-07-13T06:08:33;96769.56;;;18.94;72.92
57628;BME280;43451;49.060;10.616;2023-07-13T06:11:11;96765.41;;;19.11;68.64
57628;BME280;43451;49.060;10.616;2023-07-13T06:13:37;96779.13;;;19.24;72.78
57628;BME280;43451;49.060;10.616;2023-07-13T06:16:03;96781.50;;;19.13;73.07
57628;BME280;43451;49.060;10.616;2023-07-13T06:18:30;96790.78;;;19.28;69.83
57628;BME280;43451;49.060;10.616;2023-07-13T06:20:56;96789.88;;;19.09;68.29
57628;BME280;43451;49.060;10.616;2023-07-13T06:23:22;96784.19;;;19.04;67.12
57628;BME280;43451;49.060;10.616;2023-07-13T06:25:48;96785.97;;;18.97;72.05
57628;BME280;43451;49.060;10.616;2023-07-13T06:28:14;96785.72;;;19.05;68.81
57628;BME280;43451;49.060;10.616;2023-07-13T06:30:39;96790.66;;;19.10;68.97
57628;BME280;43451;49.060;10.616;2023-07-13T06:33:05;96782.94;;;19.05;69.81
57628;BME280;43451;49.060;10.616;2023-07-13T06:35:31;96790.56;;;19.00;70.85
57628;BME280;43451;49.060;10.616;2023-07-13T06:37:56;96790.97;;;19.12;69.26
57628;BME280;43451;49.060;10.616;2023-07-13T06:40:22;96787.56;;;19.08;70.11
57628;BME280;43451;49.060;10.616;2023-07-13T06:42:47;96787.44;;;19.11;67.78
57628;BME280;43451;49.060;10.616;2023-07-13T06:45:13;96794.25;;;19.19;64.90
57628;BME280;43451;49.060;10.616;2023-07-13T06:47:39;96795.19;;;19.04;69.07
57628;BME280;43451;49.060;10.616;2023-07-13T06:50:05;96790.25;;;18.98;69.36
57628;BME280;43451;49.060;10.616;2023-07-13T06:52:30;96800.28;;;19.27;64.36
57628;BME280;43451;49.060;10.616;2023-07-13T06:54:56;96807.13;;;19.22;66.63
57628;BME280;43451;49.060;10.616;2023-07-13T06:57:22;96814.75;;;19.40;65.75
57628;BME280;43451;49.060;10.616;2023-07-13T06:59:47;96823.75;;;19.54;62.24
57628;BME280;43451;49.060;10.616;2023-07-13T07:02:13;96816.19;;;19.45;62.18
57628;BME280;43451;49.060;10.616;2023-07-13T07:04:39;96826.19;;;19.52;64.45
57628;BME280;43451;49.060;10.616;2023-07-13T07:07:04;96825.66;;;19.44;64.26
57628;BME280;43451;49.060;10.616;2023-07-13T07:09:30;96831.56;;;19.55;62.82
57628;BME280;43451;49.060;10.616;2023-07-13T07:11:57;96828.47;;;19.53;63.60
57628;BME280;43451;49.060;10.616;2023-07-13T07:14:23;96834.81;;;19.63;62.95
57628;BME280;43451;49.060;10.616;2023-07-13T07:16:49;96841.41;;;19.43;68.09
57628;BME280;43451;49.060;10.616;2023-07-13T07:19:16;96845.81;;;19.54;62.36
57628;BME280;43451;49.060;10.616;2023-07-13T07:21:41;96852.25;;;19.38;63.80
57628;BME280;43451;49.060;10.616;2023-07-13T07:24:07;96852.78;;;19.45;62.60
57628;BME280;43451;49.060;10.616;2023-07-13T07:26:33;96856.69;;;19.57;62.94
57628;BME280;43451;49.060;10.616;2023-07-13T07:28:59;96847.63;;;19.57;63.95
57628;BME280;43451;49.060;10.616;2023-07-13T07:31:24;96846.66;;;19.63;65.26
57628;BME280;43451;49.060;10.616;2023-07-13T07:33:50;96844.16;;;19.78;65.20
57628;BME280;43451;49.060;10.616;2023-07-13T07:36:16;96846.34;;;19.83;65.77
57628;BME280;43451;49.060;10.616;2023-07-13T07:38:43;96839.41;;;19.79;61.03
57628;BME280;43451;49.060;10.616;2023-07-13T07:41:09;96858.91;;;19.84;62.33
57628;BME280;43451;49.060;10.616;2023-07-13T07:43:35;96854.22;;;19.94;65.77
57628;BME280;43451;49.060;10.616;2023-07-13T07:46:01;96852.38;;;20.22;59.49
57628;BME280;43451;49.060;10.616;2023-07-13T07:48:26;96858.34;;;20.21;61.11
57628;BME280;43451;49.060;10.616;2023-07-13T07:50:52;96866.72;;;20.39;54.75
57628;BME280;43451;49.060;10.616;2023-07-13T07:53:17;96862.97;;;20.24;56.66
57628;BME280;43451;49.060;10.616;2023-07-13T07:55:43;96857.22;;;20.09;60.19
57628;BME280;43451;49.060;10.616;2023-07-13T07:58:08;96852.78;;;20.11;60.24
57628;BME280;43451;49.060;10.616;2023-07-13T08:00:34;96854.31;;;20.12;60.26
57628;BME280;43451;49.060;10.616;2023-07-13T08:03:01;96857.63;;;20.29;59.54
57628;BME280;43451;49.060;10.616;2023-07-13T08:05:26;96852.56;;;20.28;59.51
57628;BME280;43451;49.060;10.616;2023-07-13T08:07:52;96862.31;;;20.20;60.00
57628;BME280;43451;49.060;10.616;2023-07-13T08:10:18;96875.88;;;20.36;59.60
57628;BME280;43451;49.060;10.616;2023-07-13T08:12:43;96878.19;;;20.59;58.94
57628;BME280;43451;49.060;10.616;2023-07-13T08:15:12;96880.81;;;20.63;56.18
57628;BME280;43451;49.060;10.616;2023-07-13T08:17:38;96873.50;;;20.78;54.06
57628;BME280;43451;49.060;10.616;2023-07-13T08:20:04;96869.38;;;20.92;53.47
57628;BME280;43451;49.060;10.616;2023-07-13T08:22:29;96863.13;;;21.01;51.05
57628;BME280;43451;49.060;10.616;2023-07-13T08:24:55;96866.50;;;21.14;52.62
57628;BME280;43451;49.060;10.616;2023-07-13T08:27:25;96863.59;;;21.27;49.03
57628;BME280;43451;49.060;10.616;2023-07-13T08:29:52;96863.91;;;21.10;50.72
57628;BME280;43451;49.060;10.616;2023-07-13T08:32:19;96863.72;;;20.96;50.70
57628;BME280;43451;49.060;10.616;2023-07-13T08:34:45;96868.03;;;20.97;49.93
57628;BME280;43451;49.060;10.616;2023-07-13T08:37:10;96864.31;;;20.91;51.64
57628;BME280;43451;49.060;10.616;2023-07-13T08:39:36;96872.31;;;20.98;52.86
57628;BME280;43451;49.060;10.616;2023-07-13T08:47:40;96875.47;;;21.46;47.66
57628;BME280;43451;49.060;10.616;2023-07-13T08:50:11;96873.63;;;21.61;46.95
57628;BME280;43451;49.060;10.616;2023-07-13T08:52:41;96887.78;;;21.45;48.55
57628;BME280;43451;49.060;10.616;2023-07-13T08:55:24;96877.16;;;21.62;47.19
57628;BME280;43451;49.060;10.616;2023-07-13T08:58:00;96885.63;;;21.67;48.59
57628;BME280;43451;49.060;10.616;2023-07-13T09:00:36;96890.84;;;21.56;46.74
57628;BME280;43451;49.060;10.616;2023-07-13T09:03:03;96882.53;;;21.65;48.63
57628;BME280;43451;49.060;10.616;2023-07-13T09:05:34;96885.63;;;21.67;47.56
57628;BME280;43451;49.060;10.616;2023-07-13T09:08:36;96892.22;;;21.61;47.72
57628;BME280;43451;49.060;10.616;2023-07-13T09:11:23;96887.78;;;21.54;48.33
57628;BME280;43451;49.060;10.616;2023-07-13T09:16:44;96879.50;;;21.63;44.80
57628;BME280;43451;49.060;10.616;2023-07-13T09:19:20;96880.41;;;21.42;45.12
57628;BME280;43451;49.060;10.616;2023-07-13T09:21:47;96876.41;;;21.43;44.90
57628;BME280;43451;49.060;10.616;2023-07-13T09:26:52;96877.66;;;21.60;47.49
57628;BME280;43451;49.060;10.616;2023-07-13T09:29:27;96888.06;;;21.56;47.31
57628;BME280;43451;49.060;10.616;2023-07-13T09:31:57;96886.22;;;21.53;45.89
57628;BME280;43451;49.060;10.616;2023-07-13T09:34:24;96871.78;;;21.76;46.86
57628;BME280;43451;49.060;10.616;2023-07-13T09:36:49;96878.25;;;21.73;47.72
57628;BME280;43451;49.060;10.616;2023-07-13T09:39:28;96870.06;;;21.88;48.06
57628;BME280;43451;49.060;10.616;2023-07-13T09:44:59;96860.25;;;22.48;42.30
57628;BME280;43451;49.060;10.616;2023-07-13T09:47:32;96861.03;;;22.82;45.50
57628;BME280;43451;49.060;10.616;2023-07-13T09:50:06;96855.31;;;22.94;44.63
57628;BME280;43451;49.060;10.616;2023-07-13T09:52:42;96862.84;;;23.18;41.23
57628;BME280;43451;49.060;10.616;2023-07-13T09:55:27;96863.56;;;23.04;41.27
57628;BME280;43451;49.060;10.616;2023-07-13T09:57:54;96876.41;;;22.83;40.87
57628;BME280;43451;49.060;10.616;2023-07-13T10:00:28;96868.72;;;22.87;42.86
57628;BME280;43451;49.060;10.616;2023-07-13T10:03:01;96870.56;;;22.90;41.05
57628;BME280;43451;49.060;10.616;2023-07-13T10:05:37;96859.53;;;23.05;41.36
57628;BME280;43451;49.060;10.616;2023-07-13T10:08:03;96869.22;;;23.33;39.89
57628;BME280;43451;49.060;10.616;2023-07-13T10:10:31;96874.25;;;23.59;40.17
57628;BME280;43451;49.060;10.616;2023-07-13T10:12:57;96873.28;;;23.47;39.81
57628;BME280;43451;49.060;10.616;2023-07-13T10:15:24;96874.38;;;23.64;41.11
57628;BME280;43451;49.060;10.616;2023-07-13T10:17:51;96884.41;;;23.62;39.37
57628;BME280;43451;49.060;10.616;2023-07-13T10:20:18;96884.38;;;23.47;36.59
57628;BME280;43451;49.060;10.616;2023-07-13T10:25:29;96891.97;;;23.61;38.87
57628;BME280;43451;49.060;10.616;2023-07-13T10:28:11;96891.47;;;23.48;39.81
57628;BME280;43451;49.060;10.616;2023-07-13T10:30:43;96891.00;;;23.26;38.61
57628;BME280;43451;49.060;10.616;2023-07-13T10:33:12;96891.28;;;23.52;39.59
57628;BME280;43451;49.060;10.616;2023-07-13T10:35:41;96881.75;;;23.68;39.48
57628;BME280;43451;49.060;10.616;2023-07-13T10:38:13;96888.50;;;23.52;37.92
57628;BME280;43451;49.060;10.616;2023-07-13T10:40:43;96892.69;;;23.47;39.81
57628;BME280;43451;49.060;10.616;2023-07-13T10:43:28;96891.47;;;23.48;39.72
57628;BME280;43451;49.060;10.616;2023-07-13T10:45:56;96878.19;;;23.28;38.62
57628;BME280;43451;49.060;10.616;2023-07-13T10:48:23;96885.81;;;23.19;37.78
57628;BME280;43451;49.060;10.616;2023-07-13T10:50:50;96884.31;;;23.32;37.93
57628;BME280;43451;49.060;10.616;2023-07-13T10:53:33;96887.03;;;23.42;38.01
57628;BME280;43451;49.060;10.616;2023-07-13T10:56:10;96873.00;;;23.69;38.24
57628;BME280;43451;49.060;10.616;2023-07-13T10:58:44;96875.84;;;23.75;38.32
57628;BME280;43451;49.060;10.616;2023-07-13T11:04:00;96867.84;;;23.53;38.50
57628;BME280;43451;49.060;10.616;2023-07-13T11:08:57;96871.59;;;23.64;40.54
57628;BME280;43451;49.060;10.616;2023-07-13T11:13:59;96856.94;;;24.03;38.07
57628;BME280;43451;49.060;10.616;2023-07-13T11:16:44;96849.09;;;24.01;37.87
57628;BME280;43451;49.060;10.616;2023-07-13T11:25:00;96845.34;;;24.49;38.36
57628;BME280;43451;49.060;10.616;2023-07-13T11:27:42;96840.44;;;24.59;39.10
57628;BME280;43451;49.060;10.616;2023-07-13T11:33:24;96842.38;;;24.88;39.36
57628;BME280;43451;49.060;10.616;2023-07-13T11:36:13;96852.50;;;25.06;37.19
57628;BME280;43451;49.060;10.616;2023-07-13T11:41:12;96861.00;;;25.17;36.70
57628;BME280;43451;49.060;10.616;2023-07-13T11:43:40;96852.72;;;25.22;35.92
57628;BME280;43451;49.060;10.616;2023-07-13T11:48:39;96858.78;;;25.41;38.96
57628;BME280;43451;49.060;10.616;2023-07-13T11:51:05;96859.03;;;25.23;36.55
57628;BME280;43451;49.060;10.616;2023-07-13T11:53:39;96850.34;;;24.80;34.04
57628;BME280;43451;49.060;10.616;2023-07-13T11:56:06;96846.75;;;24.74;36.61
57628;BME280;43451;49.060;10.616;2023-07-13T11:58:32;96850.09;;;24.98;36.46
57628;BME280;43451;49.060;10.616;2023-07-13T12:01:00;96848.66;;;25.03;36.31
57628;BME280;43451;49.060;10.616;2023-07-13T12:03:27;96845.97;;;25.29;36.76
57628;BME280;43451;49.060;10.616;2023-07-13T12:08:27;96851.47;;;25.23;36.46
57628;BME280;43451;49.060;10.616;2023-07-13T12:11:03;96848.72;;;25.09;33.82
57628;BME280;43451;49.060;10.616;2023-07-13T12:13:37;96853.69;;;25.19;35.27
57628;BME280;43451;49.060;10.616;2023-07-13T12:16:30;96856.63;;;24.95;36.02
57628;BME280;43451;49.060;10.616;2023-07-13T12:19:00;96858.97;;;24.82;34.92
57628;BME280;43451;49.060;10.616;2023-07-13T12:21:37;96850.81;;;24.93;37.06
57628;BME280;43451;49.060;10.616;2023-07-13T12:24:04;96852.41;;;25.00;36.68
57628;BME280;43451;49.060;10.616;2023-07-13T12:26:31;96841.63;;;25.08;37.20
57628;BME280;43451;49.060;10.616;2023-07-13T12:29:00;96850.38;;;25.15;35.70
57628;BME280;43451;49.060;10.616;2023-07-13T12:31:30;96844.34;;;25.43;36.10
57628;BME280;43451;49.060;10.616;2023-07-13T12:33:58;96857.38;;;25.52;36.09
57628;BME280;43451;49.060;10.616;2023-07-13T12:36:24;96843.34;;;25.20;34.96
57628;BME280;43451;49.060;10.616;2023-07-13T12:38:51;96845.56;;;25.16;36.21
57628;BME280;43451;49.060;10.616;2023-07-13T12:41:17;96836.47;;;25.15;36.72
57628;BME280;43451;49.060;10.616;2023-07-13T12:43:45;96844.28;;;24.96;35.86
57628;BME280;43451;49.060;10.616;2023-07-13T12:46:18;96849.88;;;25.02;36.55
57628;BME280;43451;49.060;10.616;2023-07-13T12:48:52;96833.41;;;24.98;37.62
57628;BME280;43451;49.060;10.616;2023-07-13T12:51:21;96845.44;;;25.25;37.00
57628;BME280;43451;49.060;10.616;2023-07-13T12:53:50;96840.34;;;25.44;35.28
57628;BME280;43451;49.060;10.616;2023-07-13T12:56:22;96843.66;;;25.28;35.72
57628;BME280;43451;49.060;10.616;2023-07-13T12:58:49;96841.06;;;25.04;36.74
57628;BME280;43451;49.060;10.616;2023-07-13T13:01:21;96841.09;;;25.24;35.87
57628;BME280;43451;49.060;10.616;2023-07-13T13:03:51;96841.50;;;24.96;37.05
57628;BME280;43451;49.060;10.616;2023-07-13T13:06:21;96843.56;;;25.01;36.18
57628;BME280;43451;49.060;10.616;2023-07-13T13:08:54;96838.53;;;24.65;37.24
57628;BME280;43451;49.060;10.616;2023-07-13T13:11:21;96834.13;;;24.58;38.06
57628;BME280;43451;49.060;10.616;2023-07-13T13:13:48;96832.78;;;24.53;37.00
57628;BME280;43451;49.060;10.616;2023-07-13T13:16:44;96832.63;;;24.42;36.35
57628;BME280;43451;49.060;10.616;2023-07-13T13:19:24;96823.69;;;24.88;37.57
57628;BME280;43451;49.060;10.616;2023-07-13T13:21:51;96828.91;;;25.01;35.64
57628;BME280;43451;49.060;10.616;2023-07-13T13:24:20;96823.72;;;25.09;36.95
57628;BME280;43451;49.060;10.616;2023-07-13T13:26:47;96818.63;;;25.48;38.09
57628;BME280;43451;49.060;10.616;2023-07-13T13:29:15;96831.00;;;25.93;36.22
57628;BME280;43451;49.060;10.616;2023-07-13T13:31:42;96817.09;;;25.93;34.55
57628;BME280;43451;49.060;10.616;2023-07-13T13:34:13;96826.59;;;26.07;34.36
57628;BME280;43451;49.060;10.616;2023-07-13T13:36:40;96817.13;;;25.99;34.70